Time;durP1;ratioP1;P1;durP2;ratioP2;P2;SDS_P1;SDS_P2;PMS_P1;PMS_P2;Temp;Humidity;BMP_temperature;BMP_pressure;BME280_temperature;BME280_humidity;BME280_pressure;Samples;Min_cycle;Max_cycle;Signal;HPM_P1;HPM_P2
2022/06/12 00:00:11;;;;;;;20.75;9.57;;;;;;;14.55;69.02;102180.38;5072518;28;20028;-58
2022/06/12 00:02:36;;;;;;;19.48;9.63;;;;;;;14.53;69.24;102177.06;5072899;28;20061;-57
2022/06/12 00:05:03;;;;;;;20.23;9.45;;;;;;;14.51;69.68;102174.59;5073205;28;20078;-57
2022/06/12 00:07:28;;;;;;;19.27;9.20;;;;;;;14.43;70.60;102174.41;5073192;28;20490;-58
2022/06/12 00:09:54;;;;;;;21.00;9.75;;;;;;;14.39;69.92;102181.72;5072974;28;20456;-57
2022/06/12 00:12:19;;;;;;;20.00;9.63;;;;;;;14.34;70.63;102177.06;5073086;28;20040;-58
2022/06/12 00:14:44;;;;;;;18.88;9.43;;;;;;;14.26;70.59;102180.53;5073082;28;20101;-58
2022/06/12 00:17:10;;;;;;;18.35;9.70;;;;;;;14.22;70.98;102176.66;5072954;28;20109;-57
2022/06/12 00:19:37;;;;;;;19.70;9.15;;;;;;;14.14;71.14;102187.34;5072581;28;20032;-57
2022/06/12 00:22:03;;;;;;;20.35;9.50;;;;;;;14.11;71.66;102179.56;5072676;28;20028;-58
2022/06/12 00:24:28;;;;;;;18.75;9.38;;;;;;;14.05;71.83;102178.00;5072678;28;20025;-57
2022/06/12 00:26:56;;;;;;;19.35;9.52;;;;;;;13.95;71.34;102167.00;5072269;28;20100;-56
2022/06/12 00:29:27;;;;;;;18.88;9.20;;;;;;;13.97;72.04;102176.69;5072653;28;20165;-56
2022/06/12 00:32:03;;;;;;;17.98;9.48;;;;;;;13.87;73.05;102172.09;5072769;28;20048;-57
2022/06/12 00:34:34;;;;;;;18.98;9.02;;;;;;;13.81;72.33;102162.13;5090627;28;20032;-57
2022/06/12 00:37:00;;;;;;;18.92;9.52;;;;;;;13.94;72.17;102170.91;5092693;28;20110;-58
2022/06/12 00:39:27;;;;;;;18.00;9.48;;;;;;;13.94;71.32;102168.94;5092885;28;20138;-57
2022/06/12 00:41:54;;;;;;;21.92;9.93;;;;;;;13.93;71.40;102158.94;5092566;28;20032;-57
2022/06/12 00:44:25;;;;;;;18.90;9.30;;;;;;;13.92;71.93;102159.22;5092540;28;20107;-56
2022/06/12 00:47:02;;;;;;;19.52;9.45;;;;;;;13.88;72.58;102167.34;5092408;28;20394;-57
2022/06/12 00:49:59;;;;;;;20.48;9.77;;;;;;;13.87;72.15;102172.09;5092695;28;20083;-57
2022/06/12 00:52:35;;;;;;;20.00;10.18;;;;;;;13.84;72.41;102171.81;5079241;28;20044;-57
2022/06/12 00:55:14;;;;;;;18.75;9.75;;;;;;;13.77;72.76;102176.91;5092554;28;20126;-58
2022/06/12 00:57:40;;;;;;;20.40;10.07;;;;;;;13.77;73.08;102177.78;5092225;28;20489;-58
2022/06/12 01:00:12;;;;;;;21.10;10.63;;;;;;;13.73;72.47;102174.75;5092302;28;20086;-57
2022/06/12 01:02:40;;;;;;;20.27;9.50;;;;;;;13.68;73.21;102174.78;5092390;28;20157;-58
2022/06/12 01:07:58;;;;;;;19.85;9.60;;;;;;;13.53;73.60;102166.63;5093279;28;20100;-58
2022/06/12 01:10:28;;;;;;;20.90;10.10;;;;;;;13.51;73.72;102171.66;5092544;28;20115;-57
2022/06/12 01:13:22;;;;;;;21.15;10.27;;;;;;;13.47;72.70;102165.00;5092213;28;20062;-58
2022/06/12 01:15:52;;;;;;;19.77;9.70;;;;;;;13.36;74.31;102164.25;5089813;28;20059;-57
2022/06/12 01:18:22;;;;;;;18.98;9.65;;;;;;;13.25;74.02;102163.53;5091711;28;20151;-58
2022/06/12 01:21:22;;;;;;;18.90;9.77;;;;;;;13.31;73.44;102172.66;5092110;28;20047;-57
2022/06/12 01:24:02;;;;;;;20.73;9.60;;;;;;;13.26;74.52;102176.31;5091624;28;20032;-58
2022/06/12 01:26:58;;;;;;;17.83;9.38;;;;;;;13.19;74.31;102173.88;5091483;28;20182;-56
2022/06/12 01:29:33;;;;;;;20.20;9.80;;;;;;;13.12;75.52;102176.16;5091512;28;20036;-57
2022/06/12 01:32:21;;;;;;;20.05;10.05;;;;;;;13.08;75.37;102175.06;5091205;28;20449;-56
2022/06/12 01:35:27;;;;;;;22.33;10.05;;;;;;;13.01;75.92;102172.63;5091435;28;20462;-57
2022/06/12 01:38:10;;;;;;;18.77;9.68;;;;;;;12.99;76.33;102169.28;5073452;28;20173;-55
2022/06/12 01:40:49;;;;;;;21.80;10.45;;;;;;;12.87;77.56;102164.13;5091501;28;20133;-57
2022/06/12 01:43:23;;;;;;;21.00;10.27;;;;;;;12.86;77.88;102170.78;5091503;28;20031;-58
2022/06/12 01:46:03;;;;;;;19.08;9.85;;;;;;;12.74;77.27;102160.03;5091713;28;20027;-58
2022/06/12 01:48:53;;;;;;;22.88;10.55;;;;;;;12.68;77.57;102152.88;5091712;28;20150;-58
2022/06/12 01:51:31;;;;;;;20.40;10.27;;;;;;;12.69;77.99;102148.16;5091507;28;20150;-58
2022/06/12 01:54:22;;;;;;;20.60;10.30;;;;;;;12.67;78.64;102154.00;5091550;28;20527;-57
2022/06/12 01:57:03;;;;;;;20.80;10.23;;;;;;;12.62;78.36;102156.78;5091505;28;20046;-58
2022/06/12 01:59:41;;;;;;;20.35;10.48;;;;;;;12.53;78.86;102148.25;5091233;28;20035;-55
2022/06/12 02:02:09;;;;;;;21.15;10.57;;;;;;;12.48;78.99;102159.38;5091019;28;20111;-58
2022/06/12 02:04:43;;;;;;;19.77;10.38;;;;;;;12.46;79.36;102151.34;5091186;28;20081;-57
2022/06/12 02:07:13;;;;;;;22.70;10.52;;;;;;;12.40;80.64;102154.44;5091612;28;20038;-57
2022/06/12 02:09:43;;;;;;;19.80;10.65;;;;;;;12.33;80.71;102158.38;5091307;28;20024;-58
2022/06/12 02:15:06;;;;;;;18.90;10.00;;;;;;;12.31;80.24;102154.22;5091602;28;20445;-57
2022/06/12 02:17:47;;;;;;;20.17;9.93;;;;;;;12.29;80.46;102145.34;5091611;28;20027;-57
2022/06/12 02:20:18;;;;;;;21.02;11.02;;;;;;;12.31;80.67;102155.03;5091238;28;20028;-57
2022/06/12 02:22:44;;;;;;;22.85;11.32;;;;;;;12.43;80.65;102168.56;5094444;28;20035;-56
2022/06/12 02:25:33;;;;;;;24.05;11.27;;;;;;;12.40;79.71;102171.09;5095029;28;20052;-57
2022/06/12 02:28:04;;;;;;;21.23;11.23;;;;;;;12.21;80.28;102146.78;5093333;28;20482;-57
2022/06/12 02:30:39;;;;;;;19.77;11.20;;;;;;;12.32;80.53;102162.25;5094789;28;20032;-58
2022/06/12 02:33:10;;;;;;;21.77;10.85;;;;;;;12.21;80.92;102157.88;5094934;28;20024;-56
2022/06/12 02:35:50;;;;;;;21.08;10.63;;;;;;;12.16;82.16;102161.50;5094778;28;20073;-57
2022/06/12 02:38:29;;;;;;;19.58;10.80;;;;;;;12.06;82.39;102153.22;5094587;28;20125;-58
2022/06/12 02:41:04;;;;;;;20.85;10.50;;;;;;;12.07;82.05;102154.06;5094529;28;20020;-56
2022/06/12 02:43:32;;;;;;;21.08;10.45;;;;;;;12.01;81.74;102145.75;5094690;28;20120;-57
2022/06/12 02:46:08;;;;;;;21.88;10.70;;;;;;;12.10;81.71;102156.25;5094910;28;20442;-57
2022/06/12 02:48:34;;;;;;;21.77;10.65;;;;;;;12.11;81.52;102142.13;5094808;28;20086;-56
2022/06/12 02:51:16;;;;;;;21.30;10.43;;;;;;;12.09;82.05;102143.53;5094090;28;20389;-57
2022/06/12 02:54:00;;;;;;;18.85;10.63;;;;;;;12.07;81.88;102138.25;5094196;28;20130;-57
2022/06/12 02:56:48;;;;;;;21.67;10.52;;;;;;;12.06;81.16;102139.34;5094341;28;20040;-57
2022/06/12 02:59:48;;;;;;;21.02;10.20;;;;;;;12.07;80.59;102141.00;5093857;28;20366;-57
2022/06/12 03:02:19;;;;;;;20.77;10.38;;;;;;;12.06;81.23;102136.56;5060804;28;20028;-57
2022/06/12 03:04:57;;;;;;;20.27;10.80;;;;;;;12.08;81.28;102133.53;5093883;28;20386;-57
2022/06/12 03:07:23;;;;;;;21.08;10.40;;;;;;;12.09;81.25;102144.34;5093841;28;20058;-57
2022/06/12 03:09:49;;;;;;;18.98;10.07;;;;;;;12.10;81.36;102139.59;5093581;28;20039;-57
2022/06/12 03:12:14;;;;;;;20.83;10.65;;;;;;;12.09;81.25;102137.97;5092542;28;20024;-56
2022/06/12 03:14:40;;;;;;;21.08;11.02;;;;;;;12.10;81.37;102143.22;5093541;28;20032;-56
2022/06/12 03:17:05;;;;;;;21.83;10.60;;;;;;;12.12;81.71;102142.94;5093301;28;20080;-57
2022/06/12 03:19:42;;;;;;;19.98;11.05;;;;;;;12.12;82.06;102142.94;5093539;28;20035;-56
2022/06/12 03:22:34;;;;;;;19.65;10.50;;;;;;;12.22;80.50;102142.88;5093433;28;20031;-58
2022/06/12 03:25:05;;;;;;;22.65;11.18;;;;;;;12.22;81.02;102134.56;5093378;28;20048;-57
2022/06/12 03:27:43;;;;;;;22.80;11.68;;;;;;;12.36;81.34;102156.16;5093445;28;20032;-56
2022/06/12 03:30:26;;;;;;;22.70;11.35;;;;;;;12.34;81.62;102161.97;5093348;28;20034;-55
2022/06/12 03:33:25;;;;;;;19.42;11.38;;;;;;;12.33;80.69;102155.59;5093276;28;20072;-56
2022/06/12 03:36:03;;;;;;;18.67;10.73;;;;;;;12.25;81.45;102150.66;5093147;28;20089;-56
2022/06/12 03:38:40;;;;;;;23.65;10.90;;;;;;;12.27;81.76;102153.97;5093062;28;20032;-57
2022/06/12 03:41:30;;;;;;;23.60;11.10;;;;;;;12.31;81.17;102157.81;5093181;28;20032;-56
2022/06/12 03:44:14;;;;;;;21.35;10.70;;;;;;;12.34;81.48;102156.41;5092891;28;20462;-57
2022/06/12 03:46:54;;;;;;;22.08;10.48;;;;;;;12.55;80.39;102156.28;5093251;28;20062;-58
2022/06/12 03:49:38;;;;;;;19.98;10.07;;;;;;;12.84;79.59;102150.81;5093429;28;20024;-57
2022/06/12 03:52:12;;;;;;;19.55;10.32;;;;;;;13.24;77.96;102159.91;5093532;28;20050;-57
2022/06/12 03:54:49;;;;;;;21.90;10.65;;;;;;;13.50;76.69;102154.16;5093357;28;20096;-57
2022/06/12 04:00:17;;;;;;;22.63;10.98;;;;;;;13.40;76.86;102148.69;5093264;28;20097;-55
2022/06/12 04:02:46;;;;;;;19.50;9.88;;;;;;;13.31;76.56;102153.19;5093098;28;20031;-57
2022/06/12 04:05:20;;;;;;;21.15;10.15;;;;;;;13.23;76.92;102152.69;5093053;28;20060;-56
2022/06/12 04:07:49;;;;;;;21.85;10.20;;;;;;;13.22;76.92;102151.06;5092973;28;20024;-57
2022/06/12 04:10:18;;;;;;;20.42;10.13;;;;;;;13.19;77.32;102153.56;5092740;28;20034;-56
2022/06/12 04:12:44;;;;;;;20.45;10.73;;;;;;;13.17;77.25;102153.88;5092624;28;20115;-57
2022/06/12 04:15:22;;;;;;;21.00;10.27;;;;;;;13.07;77.67;102160.34;5092296;28;20044;-57
2022/06/12 04:17:47;;;;;;;20.85;10.38;;;;;;;13.08;77.80;102166.72;5092507;28;20498;-57
2022/06/12 04:20:20;;;;;;;21.13;10.68;;;;;;;13.10;77.85;102164.50;5092468;28;20035;-55
2022/06/12 04:23:02;;;;;;;21.70;10.60;;;;;;;13.18;77.41;102157.47;5092242;28;20036;-56
2022/06/12 04:25:30;;;;;;;23.92;10.75;;;;;;;13.19;77.63;102167.47;5092055;28;20495;-56
2022/06/12 04:27:56;;;;;;;21.52;10.85;;;;;;;13.22;77.26;102159.41;5092475;28;20050;-57
2022/06/12 04:30:30;;;;;;;22.00;10.60;;;;;;;13.18;77.15;102152.75;5092332;28;20478;-56
2022/06/12 04:33:18;;;;;;;23.45;10.25;;;;;;;13.27;77.04;102158.53;5092104;28;20035;-57
2022/06/12 04:36:03;;;;;;;20.45;10.38;;;;;;;13.25;76.58;102149.63;5092355;28;20024;-56
2022/06/12 04:38:31;;;;;;;19.83;9.98;;;;;;;13.34;76.43;102164.56;5092136;28;20028;-57
2022/06/12 04:40:57;;;;;;;23.02;11.10;;;;;;;13.34;76.50;102167.34;5091850;28;20115;-57
2022/06/12 04:43:22;;;;;;;22.55;10.63;;;;;;;13.38;76.59;102164.78;5091834;28;20020;-57
2022/06/12 04:45:48;;;;;;;23.65;10.90;;;;;;;13.47;76.00;102173.34;5091463;28;20028;-57
2022/06/12 04:48:35;;;;;;;21.13;10.40;;;;;;;13.56;75.55;102175.22;5092369;28;20179;-57
2022/06/12 04:51:01;;;;;;;23.90;11.00;;;;;;;13.56;75.33;102177.97;5090805;28;20036;-57
2022/06/12 04:53:26;;;;;;;22.48;10.30;;;;;;;13.60;74.97;102174.63;5091896;28;20085;-56
2022/06/12 04:55:52;;;;;;;20.58;10.15;;;;;;;13.66;74.70;102177.03;5091763;28;20035;-56
2022/06/12 04:58:17;;;;;;;23.25;10.40;;;;;;;13.69;74.21;102176.44;5092361;28;20036;-57
2022/06/12 05:00:42;;;;;;;21.85;10.30;;;;;;;13.73;74.47;102179.47;5092238;28;20098;-56
2022/06/12 05:03:08;;;;;;;22.55;10.32;;;;;;;13.79;74.51;102171.91;5091884;28;20107;-56
2022/06/12 05:05:33;;;;;;;22.10;11.40;;;;;;;13.83;74.00;102170.19;5091979;28;20032;-56
2022/06/12 05:07:58;;;;;;;21.05;10.45;;;;;;;13.91;73.77;102161.19;5091668;28;20429;-57
2022/06/12 05:10:24;;;;;;;24.00;10.90;;;;;;;13.94;74.19;102159.75;5091476;28;20451;-57
2022/06/12 05:12:49;;;;;;;22.67;10.68;;;;;;;13.99;73.84;102160.53;5091208;28;20016;-58
2022/06/12 05:15:15;;;;;;;21.73;10.63;;;;;;;14.01;73.94;102169.41;5091301;28;20028;-56
2022/06/12 05:17:44;;;;;;;23.48;10.60;;;;;;;14.03;73.66;102160.75;5091280;28;20063;-57
2022/06/12 05:20:16;;;;;;;19.02;9.80;;;;;;;14.08;73.99;102157.91;5091407;28;20024;-57
2022/06/12 05:22:42;;;;;;;21.65;10.70;;;;;;;14.16;73.49;102165.63;5089994;28;20184;-57
2022/06/12 05:25:07;;;;;;;21.60;10.75;;;;;;;14.20;73.03;102166.66;5091103;28;20130;-56
2022/06/12 05:27:33;;;;;;;21.80;10.45;;;;;;;14.26;73.26;102164.63;5091286;28;20024;-55
2022/06/12 05:29:59;;;;;;;23.45;11.05;;;;;;;14.32;73.25;102168.19;5091666;28;20470;-55
2022/06/12 05:32:24;;;;;;;23.63;10.60;;;;;;;14.38;73.54;102164.19;5091424;28;20042;-57
2022/06/12 05:34:51;;;;;;;24.33;10.88;;;;;;;14.45;73.43;102167.41;5091363;28;20028;-57
2022/06/12 05:37:17;;;;;;;23.02;10.55;;;;;;;14.49;72.87;102168.50;5091475;28;20445;-57
2022/06/12 05:39:42;;;;;;;21.58;10.50;;;;;;;14.53;72.64;102165.13;5091303;28;20035;-57
2022/06/12 05:42:08;;;;;;;23.40;11.02;;;;;;;14.59;72.61;102169.47;5091136;28;20032;-55
2022/06/12 05:44:33;;;;;;;21.52;10.52;;;;;;;14.61;72.65;102162.47;5090960;28;20028;-55
2022/06/12 05:46:59;;;;;;;24.65;10.80;;;;;;;14.68;72.82;102173.25;5091071;28;20058;-57
2022/06/12 05:49:26;;;;;;;22.63;10.80;;;;;;;14.71;72.86;102175.44;5091271;28;20134;-56
2022/06/12 05:51:51;;;;;;;22.20;10.48;;;;;;;14.74;72.97;102165.66;5091024;28;20097;-56
2022/06/12 05:54:17;;;;;;;25.38;11.60;;;;;;;14.78;73.23;102164.75;5090860;28;20031;-56
2022/06/12 05:56:42;;;;;;;23.95;11.00;;;;;;;14.88;72.92;102174.88;5089746;28;20099;-56
2022/06/12 05:59:08;;;;;;;23.08;11.30;;;;;;;14.96;72.95;102170.59;5090821;28;20020;-56
2022/06/12 06:01:33;;;;;;;24.10;10.95;;;;;;;15.00;72.82;102171.66;5090925;28;20056;-56
2022/06/12 06:03:59;;;;;;;22.48;10.73;;;;;;;15.00;73.70;102176.38;5090806;28;20089;-56
2022/06/12 06:06:29;;;;;;;24.35;11.20;;;;;;;15.01;73.66;102172.47;5090736;28;20036;-56
2022/06/12 06:08:56;;;;;;;24.20;11.07;;;;;;;15.17;73.90;102179.44;5089020;28;20021;-57
2022/06/12 06:11:21;;;;;;;20.90;11.07;;;;;;;15.27;73.86;102175.66;5090640;28;20066;-56
2022/06/12 06:13:46;;;;;;;22.60;10.80;;;;;;;15.38;73.62;102179.91;5091009;28;20056;-56
2022/06/12 06:16:12;;;;;;;26.02;11.55;;;;;;;15.42;73.85;102175.38;5090827;28;20054;-57
2022/06/12 06:18:40;;;;;;;26.15;11.15;;;;;;;15.50;73.53;102182.22;5090449;28;20362;-56
2022/06/12 06:21:08;;;;;;;23.83;11.38;;;;;;;15.54;73.67;102182.41;5090002;28;20052;-56
2022/06/12 06:23:34;;;;;;;26.00;11.27;;;;;;;15.63;74.02;102179.75;5089992;28;20032;-58
2022/06/12 06:26:00;;;;;;;25.45;11.43;;;;;;;15.74;73.33;102186.75;5090144;28;20101;-56
2022/06/12 06:28:25;;;;;;;25.35;11.10;;;;;;;15.81;73.65;102189.16;5090019;28;20401;-56
2022/06/12 06:30:50;;;;;;;23.83;11.50;;;;;;;15.85;73.54;102182.69;5089936;28;20058;-56
2022/06/12 06:33:16;;;;;;;22.67;11.13;;;;;;;15.94;73.47;102190.31;5089951;28;20424;-56
2022/06/12 06:35:42;;;;;;;27.10;11.50;;;;;;;16.00;73.05;102184.34;5089715;28;20032;-56
2022/06/12 06:38:08;;;;;;;27.17;11.88;;;;;;;16.01;73.21;102190.75;5088445;28;20059;-56
2022/06/12 06:40:34;;;;;;;25.33;11.18;;;;;;;16.11;73.17;102186.91;5089947;28;20032;-57
2022/06/12 06:43:00;;;;;;;24.23;10.88;;;;;;;16.27;73.13;102195.78;5089884;28;20061;-55
2022/06/12 06:48:11;;;;;;;24.33;11.88;;;;;;;16.66;71.64;102192.38;5090356;28;20448;-57
2022/06/12 06:50:37;;;;;;;22.95;11.75;;;;;;;16.95;71.01;102198.75;5089858;28;20086;-57
2022/06/12 06:53:04;;;;;;;27.30;11.73;;;;;;;17.13;70.21;102202.50;5088726;28;20064;-56
2022/06/12 06:55:31;;;;;;;23.85;11.05;;;;;;;17.24;69.84;102184.31;5090034;28;20035;-56
2022/06/12 06:57:57;;;;;;;26.27;10.90;;;;;;;17.40;68.98;102197.88;5089753;28;20086;-57
2022/06/12 07:00:29;;;;;;;28.10;12.05;;;;;;;17.45;68.47;102204.19;5089923;28;20028;-56
2022/06/12 07:02:56;;;;;;;27.27;11.73;;;;;;;17.51;67.59;102193.69;5090014;28;20169;-56
2022/06/12 07:05:21;;;;;;;28.27;12.07;;;;;;;17.54;67.69;102195.84;5089749;28;20518;-56
2022/06/12 07:07:47;;;;;;;24.17;11.93;;;;;;;17.62;67.47;102197.84;5091333;28;20118;-56
2022/06/12 07:10:17;;;;;;;24.50;11.90;;;;;;;17.64;67.35;102185.53;5093526;28;20040;-57
2022/06/12 07:12:43;;;;;;;23.70;11.23;;;;;;;17.86;66.60;102205.03;5093638;28;20044;-57
2022/06/12 07:15:09;;;;;;;25.55;11.95;;;;;;;17.82;66.26;102197.59;5093571;28;20115;-57
2022/06/12 07:17:35;;;;;;;26.30;11.77;;;;;;;17.83;66.63;102202.88;5093434;28;20025;-56
2022/06/12 07:20:00;;;;;;;27.65;12.15;;;;;;;17.95;66.11;102205.06;5093410;28;20110;-55
2022/06/12 07:22:26;;;;;;;23.92;12.10;;;;;;;18.02;65.90;102196.25;5093483;28;20103;-57
2022/06/12 07:24:51;;;;;;;25.38;11.73;;;;;;;18.01;65.82;102198.19;5093487;28;20478;-56
2022/06/12 07:27:16;;;;;;;26.95;12.07;;;;;;;18.02;66.21;102204.63;5092066;28;20489;-56
2022/06/12 07:29:42;;;;;;;24.80;12.10;;;;;;;18.09;65.57;102204.97;5093450;28;20111;-56
2022/06/12 07:32:08;;;;;;;27.05;11.68;;;;;;;18.17;65.13;102208.97;5092925;28;20501;-56
2022/06/12 07:34:33;;;;;;;24.83;11.50;;;;;;;18.33;64.72;102210.16;5093601;28;20032;-57
2022/06/12 07:36:59;;;;;;;23.13;11.18;;;;;;;18.50;62.93;102200.97;5093119;28;20031;-57
2022/06/12 07:39:28;;;;;;;28.25;11.77;;;;;;;18.65;63.04;102201.63;5091806;28;20107;-57
2022/06/12 07:41:54;;;;;;;24.08;10.88;;;;;;;18.66;62.37;102208.88;5091706;28;20031;-57
2022/06/12 07:44:23;;;;;;;23.15;11.38;;;;;;;18.60;63.15;102207.41;5092806;28;20219;-57
2022/06/12 07:46:51;;;;;;;23.98;11.07;;;;;;;18.57;62.56;102208.06;5092723;28;20060;-57
2022/06/12 07:49:17;;;;;;;23.73;11.38;;;;;;;18.53;62.23;102207.88;5093307;28;20028;-56
2022/06/12 07:51:43;;;;;;;24.67;10.82;;;;;;;18.58;62.11;102210.50;5093100;28;20088;-57
2022/06/12 07:54:08;;;;;;;27.88;11.80;;;;;;;18.71;62.82;102206.75;5093017;28;20424;-56
2022/06/12 07:56:34;;;;;;;22.98;10.75;;;;;;;18.76;62.90;102211.38;5092934;28;20052;-56
2022/06/12 07:58:59;;;;;;;22.45;10.95;;;;;;;18.78;62.30;102213.81;5092882;28;20024;-56
2022/06/12 08:01:27;;;;;;;27.85;11.90;;;;;;;18.86;62.59;102211.03;5092852;28;20031;-58
2022/06/12 08:03:54;;;;;;;24.30;11.50;;;;;;;19.08;62.75;102216.81;5093868;28;20032;-56
2022/06/12 08:06:20;;;;;;;24.38;11.40;;;;;;;19.18;62.01;102206.06;5093407;28;20071;-56
2022/06/12 08:08:46;;;;;;;24.92;12.05;;;;;;;19.28;61.05;102212.50;5093665;28;20024;-56
2022/06/12 08:11:13;;;;;;;23.55;11.00;;;;;;;19.29;60.27;102215.00;5093641;28;20497;-57
2022/06/12 08:13:38;;;;;;;24.02;11.05;;;;;;;19.19;61.07;102212.53;5093428;28;20165;-57
2022/06/12 08:16:04;;;;;;;22.85;11.32;;;;;;;19.15;61.28;102194.69;5093319;28;20449;-55
2022/06/12 08:18:29;;;;;;;24.35;11.40;;;;;;;19.27;60.83;102208.06;5092924;28;20028;-55
2022/06/12 08:21:00;;;;;;;24.65;11.35;;;;;;;19.21;60.78;102203.78;5092682;28;20423;-56
2022/06/12 08:23:33;;;;;;;24.08;11.20;;;;;;;19.24;60.91;102203.09;5093374;28;20023;-57
2022/06/12 08:26:24;;;;;;;24.45;11.27;;;;;;;19.20;59.79;102207.72;5093153;28;20052;-56
2022/06/12 08:29:16;;;;;;;24.75;11.25;;;;;;;19.26;60.93;102198.00;5090845;28;20040;-57
2022/06/12 08:31:45;;;;;;;20.80;10.63;;;;;;;19.28;60.46;102202.13;5090466;28;20455;-57
2022/06/12 08:34:16;;;;;;;23.98;10.88;;;;;;;19.34;60.20;102202.75;5092292;28;20074;-57
2022/06/12 08:36:42;;;;;;;25.60;10.73;;;;;;;19.34;58.03;102208.38;5092754;28;20024;-56
2022/06/12 08:39:07;;;;;;;23.83;10.60;;;;;;;19.41;58.80;102203.06;5092455;28;20028;-57
2022/06/12 08:41:52;;;;;;;22.42;10.80;;;;;;;19.61;57.86;102207.13;5092665;28;20038;-57
2022/06/12 08:44:31;;;;;;;23.50;10.63;;;;;;;19.45;58.13;102203.22;5092987;28;20031;-56
2022/06/12 08:47:23;;;;;;;23.55;10.90;;;;;;;19.54;58.86;102198.41;5092659;28;20036;-56
2022/06/12 08:50:13;;;;;;;22.67;10.00;;;;;;;19.71;58.61;102191.91;5068540;28;20459;-55
2022/06/12 08:52:47;;;;;;;22.08;10.43;;;;;;;19.81;58.57;102193.50;5092357;28;20135;-56
2022/06/12 08:55:29;;;;;;;24.38;10.10;;;;;;;19.77;58.12;102172.91;5092493;28;20028;-57
2022/06/12 08:58:15;;;;;;;21.55;9.57;;;;;;;19.85;58.52;102174.88;5092376;28;20470;-57
2022/06/12 09:00:43;;;;;;;21.55;10.32;;;;;;;19.94;57.19;102188.84;5092546;28;20431;-57
2022/06/12 09:03:16;;;;;;;22.02;9.57;;;;;;;19.94;55.92;102186.88;5092506;28;20111;-56
2022/06/12 09:05:49;;;;;;;22.83;9.90;;;;;;;19.93;55.27;102184.44;5092197;28;20111;-55
2022/06/12 09:08:36;;;;;;;22.65;9.88;;;;;;;19.94;55.47;102183.25;5089923;28;20538;-55
2022/06/12 09:11:14;;;;;;;21.73;9.77;;;;;;;20.04;54.74;102180.03;5092237;28;20032;-56
2022/06/12 09:14:18;;;;;;;21.83;9.27;;;;;;;20.03;55.90;102178.41;5092225;28;20028;-58
2022/06/12 09:17:15;;;;;;;22.33;9.20;;;;;;;20.11;55.73;102176.72;5091989;28;20035;-56
2022/06/12 09:20:07;;;;;;;22.15;9.40;;;;;;;20.14;55.64;102178.00;5092178;28;20032;-57
2022/06/12 09:22:54;;;;;;;22.45;10.13;;;;;;;20.19;55.36;102175.03;5080869;28;20044;-57
2022/06/12 09:26:01;;;;;;;21.52;10.48;;;;;;;20.41;55.45;102176.69;5091638;28;20332;-56
2022/06/12 09:29:02;;;;;;;22.88;9.70;;;;;;;20.61;55.26;102177.84;5091899;28;20040;-56
2022/06/12 09:31:44;;;;;;;20.30;8.65;;;;;;;20.96;52.79;102177.59;5092136;28;20028;-57
2022/06/12 09:34:25;;;;;;;20.35;9.00;;;;;;;21.13;52.04;102170.13;5092186;28;20024;-56
2022/06/12 09:38:18;;;;;;;22.55;10.00;;;;;;;21.29;53.21;102171.13;5091922;28;20501;-55
2022/06/12 09:40:04;;;;;;;19.45;8.70;;;;;;;21.15;48.83;102177.06;5091837;28;20115;-57
2022/06/12 09:42:54;;;;;;;17.13;8.65;;;;;;;20.90;48.85;102170.50;5091980;28;20028;-57
2022/06/12 09:45:31;;;;;;;20.42;8.38;;;;;;;20.63;50.03;102163.47;5091932;28;20047;-58
2022/06/12 09:48:13;;;;;;;19.33;10.07;;;;;;;20.68;53.25;102164.09;5091670;28;20028;-55
2022/06/12 09:51:11;;;;;;;21.23;9.50;;;;;;;20.89;52.03;102168.88;5091637;28;20078;-56
2022/06/12 09:54:08;;;;;;;20.63;9.30;;;;;;;21.10;51.58;102173.63;5091893;28;20056;-57
2022/06/12 09:56:42;;;;;;;21.13;9.50;;;;;;;21.15;50.49;102162.19;5086915;28;20104;-58
2022/06/12 09:59:10;;;;;;;20.35;9.35;;;;;;;21.17;50.16;102159.81;5091586;28;20107;-56
2022/06/12 10:01:40;;;;;;;20.45;9.23;;;;;;;21.39;50.70;102164.25;5091548;28;20360;-56
2022/06/12 10:04:44;;;;;;;23.00;9.90;;;;;;;21.59;50.63;102165.34;5092742;28;20024;-58
2022/06/12 10:07:15;;;;;;;20.63;9.55;;;;;;;21.46;50.69;102144.78;5059812;28;20043;-57
2022/06/12 10:09:47;;;;;;;21.90;9.85;;;;;;;21.69;49.83;102155.59;5091587;28;20028;-57
2022/06/12 10:12:21;;;;;;;19.15;10.05;;;;;;;21.93;49.86;102160.41;5091440;28;20028;-58
2022/06/12 10:14:50;;;;;;;22.02;10.23;;;;;;;22.07;49.33;102154.41;5091318;28;20024;-57
2022/06/12 10:17:21;;;;;;;20.38;10.55;;;;;;;21.95;48.72;102152.44;5091272;28;20020;-57
2022/06/12 10:20:05;;;;;;;24.50;10.57;;;;;;;21.96;50.21;102156.91;5091055;28;20032;-56
2022/06/12 10:22:43;;;;;;;20.90;9.82;;;;;;;22.06;49.64;102149.16;5091576;28;20029;-57
2022/06/12 10:25:17;;;;;;;21.58;11.18;;;;;;;22.13;49.26;102158.66;5090848;28;20097;-55
2022/06/12 10:27:44;;;;;;;24.20;11.02;;;;;;;22.03;48.96;102158.28;5091095;28;20111;-56
2022/06/12 10:30:22;;;;;;;24.20;11.10;;;;;;;21.93;50.02;102159.59;5091223;28;20107;-56
2022/06/12 10:32:52;;;;;;;21.10;10.32;;;;;;;21.78;49.53;102155.50;5091192;28;20039;-57
2022/06/12 10:35:20;;;;;;;21.05;10.30;;;;;;;21.79;49.70;102157.16;5091030;28;20046;-57
2022/06/12 10:37:45;;;;;;;23.25;10.20;;;;;;;21.85;49.48;102144.47;5090977;28;20027;-55
2022/06/12 10:40:18;;;;;;;23.33;9.80;;;;;;;21.88;49.46;102149.41;5090822;28;20095;-56
2022/06/12 10:42:49;;;;;;;20.52;9.10;;;;;;;22.00;49.29;102153.38;5092483;28;20096;-56
2022/06/12 10:45:20;;;;;;;20.23;9.23;;;;;;;22.01;47.66;102149.41;5095091;28;20032;-56
2022/06/12 10:47:47;;;;;;;18.58;9.45;;;;;;;22.05;46.55;102148.34;5094977;28;20020;-57
2022/06/12 10:50:13;;;;;;;20.17;9.20;;;;;;;22.07;46.77;102148.78;5094892;28;20028;-56
2022/06/12 10:52:53;;;;;;;18.05;9.00;;;;;;;22.23;47.04;102150.88;5093883;28;20458;-56
2022/06/12 10:55:41;;;;;;;18.05;8.70;;;;;;;22.22;46.29;102147.22;5094853;28;20492;-56
2022/06/12 10:58:47;;;;;;;19.98;9.00;;;;;;;22.38;45.82;102138.88;5094854;28;20058;-56
2022/06/12 11:01:40;;;;;;;19.48;8.68;;;;;;;22.57;46.76;102143.06;5094849;28;20110;-57
2022/06/12 11:04:32;;;;;;;20.15;9.65;;;;;;;22.62;45.96;102137.19;5095044;28;20024;-57
2022/06/12 11:07:04;;;;;;;20.05;9.25;;;;;;;22.54;44.41;102136.16;5095092;28;20081;-57
2022/06/12 11:09:32;;;;;;;18.17;8.95;;;;;;;22.54;44.59;102135.31;5094987;28;20028;-57
2022/06/12 11:12:42;;;;;;;19.08;8.57;;;;;;;22.72;45.10;102141.47;5094566;28;20074;-57
2022/06/12 11:15:33;;;;;;;16.98;7.97;;;;;;;22.74;44.38;102134.28;5032187;28;20523;-56
2022/06/12 11:18:24;;;;;;;20.17;9.00;;;;;;;22.86;44.25;102135.44;5094448;28;20032;-56
2022/06/12 11:21:00;;;;;;;19.30;8.80;;;;;;;22.85;43.38;102125.31;5094644;28;20036;-57
2022/06/12 11:23:37;;;;;;;20.73;8.43;;;;;;;23.00;43.58;102130.16;5094393;28;20082;-57
2022/06/12 11:26:21;;;;;;;18.10;8.23;;;;;;;23.10;42.70;102128.84;5094346;28;20056;-56
2022/06/12 11:29:08;;;;;;;18.05;8.60;;;;;;;23.11;43.37;102130.47;5094590;28;20032;-57
2022/06/12 11:32:00;;;;;;;16.67;8.30;;;;;;;23.14;44.12;102137.41;5094702;28;20030;-57
2022/06/12 11:34:47;;;;;;;16.75;8.52;;;;;;;23.09;43.03;102130.00;5094105;28;20032;-56
2022/06/12 11:37:21;;;;;;;19.52;8.68;;;;;;;23.08;43.66;102125.56;5094217;28;20035;-57
2022/06/12 11:40:07;;;;;;;18.98;8.73;;;;;;;22.87;43.81;102135.06;5094395;28;20085;-57
2022/06/12 11:42:53;;;;;;;19.33;9.05;;;;;;;22.95;43.95;102132.47;5094201;28;20035;-57
2022/06/12 11:45:40;;;;;;;17.23;8.13;;;;;;;22.93;42.78;102118.69;5094133;28;20028;-55
2022/06/12 11:48:21;;;;;;;19.10;8.52;;;;;;;22.68;42.77;102123.63;5094110;28;20027;-55
2022/06/12 11:51:15;;;;;;;17.55;8.05;;;;;;;22.56;43.36;102105.59;5093960;28;20024;-55
2022/06/12 11:54:15;;;;;;;19.30;8.52;;;;;;;22.39;45.29;102117.13;5092694;28;20047;-57